| time (UTC) | temp C | wind direction | speed KPH | gust KPH | rain 1hr cm | rain 24hr cm | rain mn cm | humidity % | barometer mb |
| 20260906210341 | 21 | 36 | 4.8 | 9.7 | 0.00 | 0.00 | 0.00 | 70 | 1020.9 |
| 20260906204827 | 20 | 240 | 3.2 | 12.9 | 0.00 | 0.00 | 0.00 | 70 | 1020.7 |
| 20260906203335 | 20 | 327 | 4.8 | 17.7 | 0.00 | 0.00 | 0.00 | 72 | 1020.6 |
| 20260906201830 | 21 | 93 | 6.4 | 11.3 | 0.00 | 0.00 | 0.00 | 71 | 1020.5 |
| 20260906200341 | 21 | 122 | 6.4 | 16.1 | 0.00 | 0.00 | 0.00 | 70 | 1020.6 |
| 20260906194828 | 21 | 265 | 1.6 | 14.5 | 0.00 | 0.00 | 0.00 | 72 | 1020.7 |
| 20260906193336 | 20 | 310 | 3.2 | 12.9 | 0.00 | 0.00 | 0.00 | 73 | 1020.8 |
| 20260906191844 | 21 | 102 | 3.2 | 11.3 | 0.00 | 0.00 | 0.00 | 74 | 1020.7 |
| 20260906190330 | 21 | 329 | 6.4 | 12.9 | 0.00 | 0.00 | 0.00 | 73 | 1020.7 |
| 20260906184840 | 21 | 80 | 6.4 | 17.7 | 0.00 | 0.00 | 0.00 | 73 | 1020.7 |
| 20260906183351 | 21 | 342 | 6.4 | 16.1 | 0.00 | 0.00 | 0.00 | 74 | 1020.7 |
| 20260906181837 | 20 | 98 | 6.4 | 16.1 | 0.00 | 0.00 | 0.00 | 73 | 1020.7 |
| 20260906180344 | 21 | 318 | 6.4 | 12.9 | 0.00 | 0.00 | 0.00 | 71 | 1020.6 |
| 20260906174832 | 21 | 82 | 4.8 | 14.5 | 0.00 | 0.00 | 0.00 | 71 | 1020.6 |
| 20260906173340 | 21 | 44 | 4.8 | 14.5 | 0.00 | 0.00 | 0.00 | 74 | 1020.6 |
| 20260906171833 | 20 | 98 | 9.7 | 19.3 | 0.00 | 0.00 | 0.00 | 73 | 1020.7 |
| 20260906170339 | 20 | 332 | 4.8 | 8.0 | 0.00 | 0.00 | 0.00 | 79 | 1020.7 |
| 20260906164830 | 20 | 314 | 1.6 | 9.7 | 0.00 | 0.00 | 0.00 | 80 | 1020.7 |
| 20260906163357 | 21 | 5 | 526.3 | 526.3 | 0.00 | 0.00 | 0.00 | 75 | 1020.4 |
| 20260906161827 | 20 | 325 | 3.2 | 12.9 | 0.00 | 0.00 | 0.00 | 78 | 1020.6 |
| 20260906160333 | 20 | 50 | 6.4 | 12.9 | 0.00 | 0.00 | 0.00 | 77 | 1020.8 |
| 20260906160020 | 20 | 91 | 1.6 | 8.0 | 0.00 | 0.00 | 0.00 | 77 | 1020.1 |
| 20260906154915 | 21 | 332 | 3.2 | 8.0 | 0.00 | 0.00 | 0.00 | 77 | 1020.6 |
| 20260906154609 | 20 | 355 | 1.6 | 8.0 | 0.00 | 0.00 | 0.00 | 77 | 1020.0 |
| 20260906153352 | 21 | 351 | 4.8 | 9.7 | 0.00 | 0.00 | 0.00 | 78 | 1020.5 |
| 20260906151833 | 20 | 81 | 3.2 | 17.7 | 0.00 | 0.00 | 0.00 | 81 | 1020.4 |
| 20260906150338 | 21 | 62 | 4.8 | 12.9 | 0.00 | 0.00 | 0.00 | 79 | 1020.5 |
| 20260906144832 | 20 | 52 | 3.2 | 9.7 | 0.00 | 0.00 | 0.00 | 83 | 1020.4 |
| 20260906143331 | 20 | 62 | 3.2 | 12.9 | 0.00 | 0.00 | 0.00 | 83 | 1020.3 |
| 20260906141828 | 19 | 348 | 4.8 | 8.0 | 0.00 | 0.00 | 0.00 | 87 | 1020.3 |
| 20260906140354 | 19 | 90 | 4.8 | 12.9 | 0.00 | 0.00 | 0.00 | 87 | 1020.2 |
| 20260906134843 | 19 | 341 | 4.8 | 19.3 | 0.00 | 0.00 | 0.00 | 87 | 1019.9 |
| 20260906133335 | 19 | 111 | 3.2 | 17.7 | 0.00 | 0.00 | 0.00 | 90 | 1019.8 |
| 20260906131828 | 18 | 72 | 4.8 | 14.5 | 0.00 | 0.00 | 0.00 | 93 | 1019.8 |
| 20260906130357 | 18 | 328 | 1.6 | 11.3 | 0.00 | 0.00 | 0.00 | 97 | 1019.7 |
| 20260906124829 | 18 | 360 | 1.6 | 4.8 | 0.00 | 0.00 | 0.00 | 98 | 1019.7 |
| 20260906123333 | 18 | 297 | 1.6 | 3.2 | 0.00 | 0.00 | 0.00 | 99 | 1019.4 |
| 20260906121843 | 17 | 297 | 0.0 | 4.8 | 0.00 | 0.00 | 0.00 | 100 | 1019.5 |
| 20260906120330 | 16 | 178 | 0.0 | 0.0 | 0.00 | 0.00 | 0.00 | 99 | 1019.4 |
| 20260906114826 | 15 | 178 | 0.0 | 0.0 | 0.00 | 0.00 | 0.00 | 99 | 1019.2 |
| 20260906113335 | 14 | 178 | 0.0 | 0.0 | 0.00 | 0.00 | 0.00 | 99 | 1018.9 |
| 20260906111844 | 14 | 178 | 0.0 | 0.0 | 0.00 | 0.00 | 0.00 | 98 | 1018.9 |
| 20260906110336 | 14 | 178 | 0.0 | 0.0 | 0.00 | 0.00 | 0.00 | 99 | 1018.8 |
| 20260906104828 | 13 | 178 | 0.0 | 0.0 | 0.00 | 0.00 | 0.00 | 99 | 1018.7 |
| 20260906103336 | 13 | 178 | 0.0 | 0.0 | 0.00 | 0.00 | 0.00 | 98 | 1018.3 |
| 20260906101833 | 13 | 178 | 0.0 | 0.0 | 0.00 | 0.00 | 0.00 | 98 | 1018.2 |
| 20260906100340 | 13 | 178 | 0.0 | 0.0 | 0.00 | 0.00 | 0.00 | 98 | 1018.1 |
| 20260906094832 | 14 | 178 | 0.0 | 0.0 | 0.00 | 0.00 | 0.00 | 98 | 1018.0 |
| 20260906093327 | 14 | 178 | 0.0 | 0.0 | 0.00 | 0.00 | 0.00 | 98 | 1017.9 |
| 20260906091842 | 14 | 178 | 0.0 | 0.0 | 0.00 | 0.00 | 0.00 | 98 | 1017.9 |
| 20260906090349 | 14 | 178 | 0.0 | 0.0 | 0.00 | 0.00 | 0.00 | 98 | 1017.5 |
| 20260906084900 | 15 | 178 | 0.0 | 0.0 | 0.00 | 0.00 | 0.00 | 98 | 1017.4 |
| 20260906083330 | 15 | 178 | 0.0 | 0.0 | 0.00 | 0.00 | 0.00 | 98 | 1017.2 |
| 20260906081841 | 15 | 178 | 0.0 | 0.0 | 0.00 | 0.00 | 0.00 | 98 | 1017.1 |
| 20260906080329 | 15 | 178 | 0.0 | 0.0 | 0.00 | 0.00 | 0.00 | 97 | 1017.2 |
| 20260906074901 | 15 | 178 | 0.0 | 0.0 | 0.00 | 0.00 | 0.00 | 98 | 1017.2 |
| 20260906073331 | 15 | 178 | 0.0 | 0.0 | 0.00 | 0.00 | 0.00 | 98 | 1017.1 |
| 20260906071842 | 15 | 178 | 0.0 | 0.0 | 0.00 | 0.00 | 0.00 | 98 | 1016.9 |
| 20260906070332 | 16 | 178 | 0.0 | 0.0 | 0.00 | 0.00 | 0.00 | 97 | 1017.0 |
| 20260906064850 | 16 | 178 | 0.0 | 0.0 | 0.00 | 0.00 | 0.00 | 97 | 1017.0 |
| 20260906063338 | 16 | 178 | 0.0 | 0.0 | 0.00 | 0.00 | 0.00 | 98 | 1017.1 |
| 20260906061832 | 16 | 178 | 0.0 | 0.0 | 0.00 | 0.00 | 0.00 | 97 | 1017.1 |
| 20260906060331 | 16 | 178 | 0.0 | 0.0 | 0.00 | 0.00 | 0.00 | 98 | 1017.1 |
| 20260906054832 | 16 | 178 | 0.0 | 0.0 | 0.00 | 0.00 | 0.00 | 98 | 1017.2 |
| 20260906053338 | 16 | 178 | 0.0 | 0.0 | 0.00 | 0.00 | 0.00 | 97 | 1017.2 |
| 20260906051851 | 16 | 178 | 0.0 | 0.0 | 0.00 | 0.00 | 0.00 | 97 | 1017.1 |
| 20260906050334 | 16 | 178 | 0.0 | 0.0 | 0.00 | 0.00 | 0.00 | 97 | 1017.2 |
| 20260906044828 | 16 | 178 | 0.0 | 0.0 | 0.00 | 0.00 | 0.00 | 97 | 1017.2 |
| 20260906043337 | 16 | 178 | 0.0 | 0.0 | 0.00 | 0.00 | 0.00 | 97 | 1017.1 |
| 20260906041834 | 16 | 178 | 0.0 | 1.6 | 0.00 | 0.00 | 0.00 | 97 | 1016.9 |
| 20260906040340 | 15 | 178 | 0.0 | 0.0 | 0.00 | 0.00 | 0.00 | 96 | 1016.9 |
| 20260906034833 | 16 | 178 | 0.0 | 0.0 | 0.00 | 0.00 | 0.00 | 96 | 1017.0 |
| 20260906033341 | 16 | 178 | 0.0 | 0.0 | 0.00 | 0.00 | 0.00 | 96 | 1016.9 |
| 20260906031837 | 16 | 178 | 0.0 | 0.0 | 0.00 | 0.00 | 0.00 | 95 | 1016.8 |
| 20260906030327 | 16 | 178 | 0.0 | 0.0 | 0.00 | 0.00 | 0.00 | 95 | 1016.9 |
| 20260906024835 | 17 | 178 | 0.0 | 0.0 | 0.00 | 0.00 | 0.00 | 95 | 1016.7 |
| 20260906023345 | 17 | 178 | 0.0 | 0.0 | 0.00 | 0.00 | 0.00 | 94 | 1016.7 |
| 20260906021837 | 17 | 178 | 0.0 | 0.0 | 0.00 | 0.00 | 0.00 | 94 | 1016.7 |
| 20260906020341 | 17 | 178 | 0.0 | 0.0 | 0.00 | 0.00 | 0.00 | 94 | 1016.6 |
| 20260906014836 | 18 | 178 | 0.0 | 0.0 | 0.00 | 0.00 | 0.00 | 93 | 1016.5 |
| 20260906013340 | 18 | 178 | 0.0 | 0.0 | 0.00 | 0.00 | 0.00 | 93 | 1016.4 |
| 20260906011832 | 18 | 178 | 0.0 | 0.0 | 0.00 | 0.00 | 0.00 | 93 | 1016.3 |
| 20260906010356 | 18 | 178 | 0.0 | 0.0 | 0.00 | 0.00 | 0.00 | 93 | 1016.3 |
| 20260906004828 | 18 | 178 | 0.0 | 0.0 | 0.00 | 0.00 | 0.00 | 92 | 1016.4 |
| 20260906003336 | 18 | 178 | 0.0 | 0.0 | 0.00 | 0.00 | 0.00 | 91 | 1016.0 |
| 20260906001829 | 18 | 178 | 0.0 | 0.0 | 0.00 | 0.00 | 0.00 | 90 | 1016.1 |
| 20260906000342 | 19 | 178 | 0.0 | 0.0 | 0.00 | 0.00 | 0.00 | 88 | 1016.1 |
| 20260905234834 | 20 | 178 | 0.0 | 0.0 | 0.00 | 0.00 | 0.00 | 85 | 1016.2 |
| 20260905233331 | 20 | 178 | 0.0 | 0.0 | 0.00 | 0.00 | 0.00 | 83 | 1016.2 |
| 20260905231827 | 21 | 178 | 1.6 | 3.2 | 0.00 | 0.00 | 0.00 | 80 | 1016.2 |
| 20260905230355 | 21 | 203 | 1.6 | 3.2 | 0.00 | 0.00 | 0.00 | 77 | 1016.3 |
| 20260905224903 | 22 | 152 | 0.0 | 4.8 | 0.00 | 0.00 | 0.00 | 76 | 1016.2 |
| 20260905223330 | 23 | 44 | 1.6 | 4.8 | 0.00 | 0.00 | 0.00 | 72 | 1016.1 |
| 20260905221849 | 23 | 355 | 0.0 | 3.2 | 0.00 | 0.00 | 0.00 | 71 | 1016.1 |
| 20260905220357 | 23 | 280 | 1.6 | 4.8 | 0.00 | 0.00 | 0.00 | 69 | 1016.0 |
| 20260905214829 | 23 | 17 | 1.6 | 4.8 | 0.00 | 0.00 | 0.00 | 69 | 1016.0 |
| 20260905213329 | 23 | 327 | 1.6 | 6.4 | 0.00 | 0.00 | 0.00 | 70 | 1015.8 |
| 20260905211828 | 24 | 51 | 1.6 | 8.0 | 0.00 | 0.00 | 0.00 | 67 | 1015.6 |